Time;durP1;ratioP1;P1;durP2;ratioP2;P2;SDS_P1;SDS_P2;PMS_P1;PMS_P2;Temp;Humidity;BMP_temperature;BMP_pressure;BME280_temperature;BME280_humidity;BME280_pressure;Samples;Min_cycle;Max_cycle;Signal;HPM_P1;HPM_P2
2022/09/12 00:01:21;;;;;;;;;;;;;;;22.65;68.45;100424.44;2055960;28;19996;-77
2022/09/12 00:02:42;;;;;;;;;;;;;;;22.67;68.30;100419.91;2044967;28;20287;-77
2022/09/12 00:04:04;;;;;;;;;;;;;;;22.68;68.18;100424.34;2066962;28;19929;-77
2022/09/12 00:05:27;;;;;;;;;;;;;;;22.67;68.24;100431.53;2067221;28;19928;-77
2022/09/12 00:06:49;;;;;;;;;;;;;;;22.63;67.92;100420.97;2048114;28;20013;-77
2022/09/12 00:08:12;;;;;;;;;;;;;;;22.55;67.76;100413.19;2051766;28;19930;-77
2022/09/12 00:09:34;;;;;;;;;;;;;;;22.51;68.04;100421.44;2053348;28;19926;-77
2022/09/12 00:10:55;;;;;;;;;;;;;;;22.50;67.94;100409.81;2053092;28;19928;-77
2022/09/12 00:12:18;;;;;;;;;;;;;;;22.54;67.99;100418.63;2051046;28;20442;-77
2022/09/12 00:13:42;;;;;;;;;;;;;;;22.56;67.80;100414.06;2045882;29;20009;-77
2022/09/12 00:15:04;;;;;;;;;;;;;;;22.57;67.66;100416.69;2045471;29;20022;-76
2022/09/12 00:16:27;;;;;;;;;;;;;;;22.59;67.76;100416.63;2051322;28;20393;-77
2022/09/12 00:17:48;;;;;;;;;;;;;;;22.59;67.53;100425.56;2050898;28;19970;-77
2022/09/12 00:19:10;;;;;;;;;;;;;;;22.54;67.32;100416.81;2045718;29;20375;-75
2022/09/12 00:20:33;;;;;;;;;;;;;;;22.45;67.34;100409.09;2045554;29;20350;-77
2022/09/12 00:21:55;;;;;;;;;;;;;;;22.46;67.52;100409.97;2045376;29;19922;-77
2022/09/12 00:23:16;;;;;;;;;;;;;;;22.48;67.52;100408.09;2045030;28;20358;-77
2022/09/12 00:24:39;;;;;;;;;;;;;;;22.49;67.31;100401.78;2046056;29;19968;-77
2022/09/12 00:26:03;;;;;;;;;;;;;;;22.52;67.14;100398.97;2040569;29;19926;-77
2022/09/12 00:27:25;;;;;;;;;;;;;;;22.54;67.15;100406.03;2044732;28;20291;-77
2022/09/12 00:28:48;;;;;;;;;;;;;;;22.56;66.98;100403.31;2036079;29;19927;-77
2022/09/12 00:30:09;;;;;;;;;;;;;;;22.58;66.72;100406.78;2037067;29;19923;-77
2022/09/12 00:31:32;;;;;;;;;;;;;;;22.58;66.63;100404.09;2035736;29;20496;-77
2022/09/12 00:32:53;;;;;;;;;;;;;;;22.57;66.34;100407.75;2046100;29;19922;-76
2022/09/12 00:34:16;;;;;;;;;;;;;;;22.56;66.27;100406.00;2044782;28;19923;-76
2022/09/12 00:35:42;;;;;;;;;;;;;;;22.55;66.30;100405.13;2053451;28;19922;-76
2022/09/12 00:37:04;;;;;;;;;;;;;;;22.53;66.49;100403.41;2040730;29;20402;-77
2022/09/12 00:38:25;;;;;;;;;;;;;;;22.51;66.40;100402.63;2045145;29;20013;-77
2022/09/12 00:39:47;;;;;;;;;;;;;;;22.49;66.27;100399.09;2044497;29;19949;-77
2022/09/12 00:41:12;;;;;;;;;;;;;;;22.47;66.40;100392.88;2044432;29;19930;-77
2022/09/12 00:42:34;;;;;;;;;;;;;;;22.46;66.50;100399.19;2038351;29;19964;-77
2022/09/12 00:43:57;;;;;;;;;;;;;;;22.46;66.45;100399.19;2035453;29;20065;-77
2022/09/12 00:45:22;;;;;;;;;;;;;;;22.47;66.26;100401.84;2034794;29;19923;-77
2022/09/12 00:46:45;;;;;;;;;;;;;;;22.47;66.22;100403.66;2032769;29;19978;-77
2022/09/12 00:48:16;;;;;;;;;;;;;;;22.48;65.99;100400.03;2043527;29;20586;-76
2022/09/12 00:49:42;;;;;;;;;;;;;;;22.38;65.75;100398.66;2046219;29;19929;-76
2022/09/12 00:51:06;;;;;;;;;;;;;;;22.25;65.95;100401.78;2040282;29;19927;-76
2022/09/12 00:52:29;;;;;;;;;;;;;;;22.22;66.02;100395.66;2037561;29;19922;-77
2022/09/12 00:53:54;;;;;;;;;;;;;;;22.24;66.02;100400.06;2043663;29;19923;-77
2022/09/12 00:55:16;;;;;;;;;;;;;;;22.27;66.03;100394.53;2038022;29;19923;-77
2022/09/12 00:56:40;;;;;;;;;;;;;;;22.27;65.94;100394.53;2044959;29;20480;-77
2022/09/12 00:58:02;;;;;;;;;;;;;;;22.29;65.77;100391.81;2045377;29;19926;-76
2022/09/12 00:59:26;;;;;;;;;;;;;;;22.30;65.99;100387.31;2053373;28;19928;-76
2022/09/12 01:00:48;;;;;;;;;;;;;;;22.30;65.76;100385.50;2046700;28;20016;-77
2022/09/12 01:02:11;;;;;;;;;;;;;;;22.27;65.73;100382.91;2037342;29;20066;-77
2022/09/12 01:03:32;;;;;;;;;;;;;;;22.23;65.84;100376.78;2043563;29;19930;-77
2022/09/12 01:04:54;;;;;;;;;;;;;;;22.23;65.54;100378.59;2044070;28;19949;-77
2022/09/12 01:06:20;;;;;;;;;;;;;;;22.23;65.54;100382.16;2037018;29;20450;-77
2022/09/12 01:07:43;;;;;;;;;;;;;;;22.22;65.45;100376.84;2043367;29;19922;-77
2022/09/12 01:09:04;;;;;;;;;;;;;;;22.20;65.70;100376.88;2053365;28;20468;-77
2022/09/12 01:10:26;;;;;;;;;;;;;;;;;;2048454;29;19938;-77
2022/09/12 01:11:48;;;;;;;;;;;;;;;22.15;65.14;100376.19;2047326;28;19923;-77
2022/09/12 01:13:11;;;;;;;;;;;;;;;22.15;65.29;100378.00;2046616;28;20353;-77
2022/09/12 01:14:33;;;;;;;;;;;;;;;22.14;65.31;100374.44;2054834;28;19922;-76
2022/09/12 01:15:54;;;;;;;;;;;;;;;22.14;65.21;100374.44;2051964;28;19926;-77
2022/09/12 01:17:17;;;;;;;;;;;;;;;22.16;64.86;100369.88;2053616;28;19969;-77
2022/09/12 01:18:44;;;;;;;;;;;;;;;22.21;64.63;100375.06;2061314;28;19928;-77
2022/09/12 01:20:20;;;;;;;;;;;;;;;22.22;64.62;100380.41;2057943;28;19922;-76
2022/09/12 01:21:47;;;;;;;;;;;;;;;22.22;64.60;100372.34;2056319;28;19922;-77
2022/09/12 01:23:29;;;;;;;;;;;;;;;22.22;64.47;100363.38;2045278;28;20009;-77
2022/09/12 01:24:53;;;;;;;;;;;;;;;22.22;64.43;100361.56;2055245;28;19922;-77
2022/09/12 01:26:27;;;;;;;;;;;;;;;22.25;64.47;100365.97;2053455;28;19926;-77
2022/09/12 01:28:04;;;;;;;;;;;;;;;22.25;64.15;100360.59;2057984;28;19922;-77
2022/09/12 01:29:34;;;;;;;;;;;;;;;22.25;64.19;100361.44;2039827;29;19930;-77
2022/09/12 01:31:02;;;;;;;;;;;;;;;22.27;64.03;100358.69;2060522;28;19997;-77
2022/09/12 01:32:27;;;;;;;;;;;;;;;22.29;64.03;100356.84;2054873;28;19930;-77
2022/09/12 01:34:04;;;;;;;;;;;;;;;22.31;63.97;100356.78;2053064;28;19969;-76
2022/09/12 01:35:31;;;;;;;;;;;;;;;22.33;63.66;100354.88;2054035;28;19922;-77
2022/09/12 01:36:58;;;;;;;;;;;;;;;22.35;63.54;100347.66;2057878;28;20012;-77
2022/09/12 01:38:24;;;;;;;;;;;;;;;22.35;63.48;100343.13;2056357;28;19949;-76
2022/09/12 01:39:51;;;;;;;;;;;;;;;22.31;63.48;100349.59;2054727;28;20025;-77
2022/09/12 01:41:17;;;;;;;;;;;;;;;22.26;63.82;100349.75;2051664;28;19926;-77
2022/09/12 01:42:41;;;;;;;;;;;;;;;22.21;63.77;100345.50;2055400;28;20334;-77
2022/09/12 01:44:06;;;;;;;;;;;;;;;22.16;63.88;100343.00;2051153;28;19930;-77
2022/09/12 01:45:29;;;;;;;;;;;;;;;22.11;63.62;100345.00;2054751;28;20016;-76
2022/09/12 01:46:56;;;;;;;;;;;;;;;22.06;63.81;100338.88;2047305;29;19922;-77
2022/09/12 01:48:19;;;;;;;;;;;;;;;22.04;63.78;100340.78;2053200;28;20115;-77
2022/09/12 01:49:45;;;;;;;;;;;;;;;22.06;63.71;100340.69;2054123;28;20311;-76
2022/09/12 01:51:09;;;;;;;;;;;;;;;22.09;63.50;100340.59;2054960;28;19973;-77
2022/09/12 01:52:34;;;;;;;;;;;;;;;22.08;63.40;100336.16;2039349;28;20300;-76
2022/09/12 01:53:58;;;;;;;;;;;;;;;22.08;63.39;100334.34;2047254;29;19922;-77
2022/09/12 01:55:23;;;;;;;;;;;;;;;22.10;63.01;100331.59;2047288;29;19989;-76
2022/09/12 01:56:45;;;;;;;;;;;;;;;22.13;62.66;100339.53;2056409;28;19960;-77
2022/09/12 01:58:09;;;;;;;;;;;;;;;22.15;62.54;100332.28;2057394;28;19926;-76
2022/09/12 01:59:33;;;;;;;;;;;;;;;22.16;62.56;100337.63;2055326;28;19956;-77
2022/09/12 02:00:59;;;;;;;;;;;;;;;22.16;62.28;100343.00;2053463;28;19922;-76
2022/09/12 02:02:26;;;;;;;;;;;;;;;22.17;62.55;100331.31;2039625;29;20034;-77
2022/09/12 02:03:50;;;;;;;;;;;;;;;22.18;62.50;100332.19;2045392;29;19973;-76
2022/09/12 02:05:15;;;;;;;;;;;;;;;22.16;62.33;100332.25;2057276;28;19926;-77
2022/09/12 02:06:39;;;;;;;;;;;;;;;22.15;62.64;100327.78;2056727;28;19954;-77
2022/09/12 02:08:04;;;;;;;;;;;;;;;22.16;62.31;100337.63;2065716;28;19921;-77
2022/09/12 02:09:30;;;;;;;;;;;;;;;22.16;61.87;100332.25;2056478;28;20000;-76
2022/09/12 02:10:54;;;;;;;;;;;;;;;22.15;62.05;100327.78;2049487;29;19988;-76
2022/09/12 02:12:18;;;;;;;;;;;;;;;22.14;61.84;100333.22;2054210;28;20161;-77
2022/09/12 02:13:41;;;;;;;;;;;;;;;22.13;61.81;100328.78;2055272;28;19926;-77
2022/09/12 02:15:07;;;;;;;;;;;;;;;22.11;61.89;100325.28;2055107;28;19960;-77
2022/09/12 02:16:30;;;;;;;;;;;;;;;22.10;61.82;100326.22;2046284;29;19923;-76
2022/09/12 02:17:55;;;;;;;;;;;;;;;22.09;61.86;100330.72;2044893;29;19922;-76
2022/09/12 02:19:18;;;;;;;;;;;;;;;22.08;61.90;100322.69;2051295;28;20402;-77
2022/09/12 02:20:41;;;;;;;;;;;;;;;22.06;61.88;100322.75;2054273;28;19922;-76
2022/09/12 02:22:03;;;;;;;;;;;;;;;22.07;62.00;100321.81;2053705;28;19922;-77
2022/09/12 02:23:27;;;;;;;;;;;;;;;22.06;61.76;100322.75;2055336;28;19922;-77
2022/09/12 02:24:50;;;;;;;;;;;;;;;22.07;61.66;100319.13;2049486;28;19922;-77
2022/09/12 02:26:16;;;;;;;;;;;;;;;22.07;61.62;100308.38;2055015;28;19934;-77
2022/09/12 02:27:40;;;;;;;;;;;;;;;22.06;61.17;100309.31;2049533;28;20501;-76
2022/09/12 02:29:03;;;;;;;;;;;;;;;22.08;61.07;100307.44;2047096;29;20020;-77
2022/09/12 02:30:24;;;;;;;;;;;;;;;22.08;61.28;100312.81;2052324;28;19922;-76
2022/09/12 02:31:48;;;;;;;;;;;;;;;22.09;61.21;100311.00;2049469;29;19922;-77
2022/09/12 02:33:14;;;;;;;;;;;;;;;22.06;61.45;100311.13;2049263;29;19977;-77
2022/09/12 02:34:42;;;;;;;;;;;;;;;22.04;61.32;100308.50;2051509;28;19926;-77
2022/09/12 02:36:08;;;;;;;;;;;;;;;22.05;61.15;100312.09;2046413;29;20335;-76
2022/09/12 02:37:36;;;;;;;;;;;;;;;22.05;61.36;100312.09;2055200;28;19929;-76
2022/09/12 02:38:59;;;;;;;;;;;;;;;22.03;61.19;100311.25;2047419;29;19977;-77
2022/09/12 02:40:21;;;;;;;;;;;;;;;22.03;61.10;100314.81;2051051;28;19926;-76
2022/09/12 02:41:42;;;;;;;;;;;;;;;22.05;60.72;100312.09;2053494;28;20005;-77
2022/09/12 02:43:05;;;;;;;;;;;;;;;22.07;60.51;100313.75;2052222;28;19932;-77
2022/09/12 02:44:27;;;;;;;;;;;;;;;22.08;60.79;100318.19;2052577;28;19976;-77
2022/09/12 02:45:49;;;;;;;;;;;;;;;22.08;60.55;100312.81;2051082;28;19922;-77
2022/09/12 02:47:14;;;;;;;;;;;;;;;22.06;60.23;100319.19;2053731;28;19930;-76
2022/09/12 02:48:40;;;;;;;;;;;;;;;22.03;60.70;100317.50;2047141;29;19922;-77
2022/09/12 02:50:04;;;;;;;;;;;;;;;22.02;60.75;100313.06;2051558;28;19976;-77
2022/09/12 02:51:26;;;;;;;;;;;;;;;22.02;60.66;100314.88;2048888;29;19923;-76
2022/09/12 02:52:47;;;;;;;;;;;;;;;22.00;60.65;100312.25;2059403;28;19922;-76
2022/09/12 02:54:10;;;;;;;;;;;;;;;21.99;60.80;100310.47;2060183;28;19965;-76
2022/09/12 02:55:32;;;;;;;;;;;;;;;21.98;60.55;100316.81;2046992;29;19923;-77
2022/09/12 02:56:54;;;;;;;;;;;;;;;21.96;60.79;100309.75;2053548;28;19973;-77
2022/09/12 02:58:18;;;;;;;;;;;;;;;21.96;60.61;100312.44;2054630;28;19949;-76
2022/09/12 02:59:41;;;;;;;;;;;;;;;21.96;60.69;100321.38;2053939;28;19976;-76
2022/09/12 03:01:08;;;;;;;;;;;;;;;21.98;60.38;100321.31;2037649;29;19974;-77
2022/09/12 03:02:35;;;;;;;;;;;;;;;21.98;60.20;100324.00;2041379;29;19922;-77
2022/09/12 03:04:05;;;;;;;;;;;;;;;21.98;60.11;100322.19;2061133;28;19997;-76
2022/09/12 03:05:31;;;;;;;;;;;;;;;21.98;60.22;100324.88;2049139;29;19922;-77
2022/09/12 03:07:00;;;;;;;;;;;;;;;21.97;60.10;100327.63;2056039;28;19922;-77
2022/09/12 03:08:31;;;;;;;;;;;;;;;21.93;59.98;100323.25;2056986;28;20025;-76
2022/09/12 03:09:56;;;;;;;;;;;;;;;21.90;59.84;100326.06;2053568;28;19926;-76
2022/09/12 03:11:25;;;;;;;;;;;;;;;21.88;60.09;100320.75;2049086;29;19933;-76
2022/09/12 03:12:52;;;;;;;;;;;;;;;21.87;60.03;100311.81;2052284;28;19922;-77
2022/09/12 03:14:22;;;;;;;;;;;;;;;21.86;59.59;100319.91;2055186;28;19922;-77
2022/09/12 03:15:52;;;;;;;;;;;;;;;21.88;59.95;100315.38;2055473;28;20697;-77
2022/09/12 03:17:18;;;;;;;;;;;;;;;21.91;59.53;100317.06;2055632;28;19973;-76
2022/09/12 03:18:46;;;;;;;;;;;;;;;21.92;59.55;100316.16;2057103;28;19929;-77
2022/09/12 03:20:10;;;;;;;;;;;;;;;21.94;59.16;100319.63;2041254;29;19935;-76
2022/09/12 03:21:37;;;;;;;;;;;;;;;21.96;58.94;100312.44;2043596;29;19965;-77
2022/09/12 03:23:02;;;;;;;;;;;;;;;21.96;58.34;100310.63;2054103;28;19928;-76
2022/09/12 03:24:28;;;;;;;;;;;;;;;21.98;58.21;100321.31;2055079;28;20298;-76
2022/09/12 03:25:53;;;;;;;;;;;;;;;21.99;58.28;100313.16;2054565;28;19952;-77
2022/09/12 03:27:17;;;;;;;;;;;;;;;22.00;58.34;100314.94;2062952;28;19925;-77
2022/09/12 03:28:39;;;;;;;;;;;;;;;22.00;58.14;100319.44;2055948;28;19925;-76
2022/09/12 03:30:00;;;;;;;;;;;;;;;21.98;58.37;100314.13;2053947;28;19922;-76
2022/09/12 03:31:23;;;;;;;;;;;;;;;21.94;58.32;100315.13;2045168;29;20306;-77
2022/09/12 03:32:45;;;;;;;;;;;;;;;21.85;58.47;100310.13;2053024;28;19989;-76
2022/09/12 03:34:11;;;;;;;;;;;;;;;21.81;58.63;100314.72;2046402;29;19937;-76
2022/09/12 03:35:35;;;;;;;;;;;;;;;21.79;58.81;100308.53;2055170;28;19922;-77
2022/09/12 03:36:57;;;;;;;;;;;;;;;21.79;58.54;100313.03;2053525;28;20275;-77
2022/09/12 03:38:18;;;;;;;;;;;;;;;21.77;58.89;100315.78;2053115;28;19925;-77
2022/09/12 03:39:40;;;;;;;;;;;;;;;21.77;58.54;100306.84;2049078;29;20043;-77
2022/09/12 03:41:01;;;;;;;;;;;;;;;21.76;58.71;100314.03;2053150;28;19922;-77
2022/09/12 03:42:23;;;;;;;;;;;;;;;21.76;58.66;100310.47;2053638;28;20334;-76
2022/09/12 03:43:44;;;;;;;;;;;;;;;21.74;58.34;100317.69;2048630;29;20343;-76
2022/09/12 03:45:07;;;;;;;;;;;;;;;21.71;58.31;100326.75;2046237;29;19944;-76
2022/09/12 03:46:28;;;;;;;;;;;;;;;21.67;58.59;100322.41;2057004;28;19954;-77
2022/09/12 03:47:50;;;;;;;;;;;;;;;21.65;58.48;100320.75;2064841;28;20271;-76
2022/09/12 03:49:11;;;;;;;;;;;;;;;21.62;58.83;100312.78;2058499;28;19992;-76
2022/09/12 03:50:35;;;;;;;;;;;;;;;21.63;58.66;100319.91;2057049;28;19922;-76
2022/09/12 03:51:56;;;;;;;;;;;;;;;21.64;58.84;100317.19;2042786;29;19985;-77
2022/09/12 03:53:18;;;;;;;;;;;;;;;21.66;58.82;100322.50;2057820;28;20444;-77
2022/09/12 03:54:39;;;;;;;;;;;;;;;21.68;58.72;100320.59;2047898;29;19927;-76
2022/09/12 03:56:06;;;;;;;;;;;;;;;21.68;58.59;100315.25;2050581;28;19922;-76
2022/09/12 03:57:28;;;;;;;;;;;;;;;21.72;58.80;100324.97;2060581;28;19922;-76
2022/09/12 03:58:50;;;;;;;;;;;;;;;21.74;58.73;100321.25;2048825;29;19923;-77
2022/09/12 04:00:12;;;;;;;;;;;;;;;21.76;58.55;100321.22;2044106;28;20382;-77
2022/09/12 04:01:34;;;;;;;;;;;;;;;21.78;58.64;100330.09;2053717;28;19929;-77
2022/09/12 04:02:56;;;;;;;;;;;;;;;21.78;58.65;100327.41;2044990;29;19949;-77
2022/09/12 04:04:17;;;;;;;;;;;;;;;21.75;58.72;100317.66;2051930;28;20426;-77
2022/09/12 04:05:41;;;;;;;;;;;;;;;21.74;58.63;100331.13;2048842;29;19923;-77
2022/09/12 04:07:02;;;;;;;;;;;;;;;21.73;58.71;100324.00;2054311;28;19979;-77
2022/09/12 04:08:25;;;;;;;;;;;;;;;21.73;58.65;100329.38;2048823;29;19934;-77
2022/09/12 04:09:48;;;;;;;;;;;;;;;21.75;58.57;100332.88;2058968;28;19980;-76
2022/09/12 04:11:09;;;;;;;;;;;;;;;21.77;58.67;100331.03;2047810;29;19923;-76
2022/09/12 04:12:31;;;;;;;;;;;;;;;21.77;58.53;100333.72;2053708;28;19976;-77
2022/09/12 04:13:54;;;;;;;;;;;;;;;21.78;58.86;100335.47;2040724;29;20216;-77
2022/09/12 04:15:15;;;;;;;;;;;;;;;21.79;58.92;100332.69;2051716;28;19933;-76
2022/09/12 04:16:37;;;;;;;;;;;;;;;21.82;58.89;100329.03;2052262;28;20601;-77
2022/09/12 04:17:59;;;;;;;;;;;;;;;21.88;58.91;100329.69;2048565;29;20346;-77
2022/09/12 04:19:20;;;;;;;;;;;;;;;21.98;58.53;100330.25;2052315;28;20021;-76
2022/09/12 04:20:44;;;;;;;;;;;;;;;22.07;58.52;100335.25;2047597;28;19936;-77
2022/09/12 04:22:06;;;;;;;;;;;;;;;22.17;58.39;100327.75;2048635;29;19926;-77
2022/09/12 04:23:28;;;;;;;;;;;;;;;22.27;58.13;100329.13;2054037;28;20092;-77
2022/09/12 04:24:50;;;;;;;;;;;;;;;22.39;58.07;100335.81;2061817;28;20082;-77
2022/09/12 04:26:13;;;;;;;;;;;;;;;22.50;57.98;100334.47;2046338;29;19990;-77
2022/09/12 04:27:34;;;;;;;;;;;;;;;22.62;57.89;100330.41;2051938;28;19929;-77
2022/09/12 04:28:56;;;;;;;;;;;;;;;22.75;57.75;100344.25;2051014;28;19922;-77
2022/09/12 04:30:18;;;;;;;;;;;;;;;22.83;57.68;100336.75;2053864;28;19922;-77
2022/09/12 04:31:39;;;;;;;;;;;;;;;22.91;57.74;100338.16;2053008;28;19926;-77
2022/09/12 04:33:02;;;;;;;;;;;;;;;23.01;57.76;100336.84;2056065;28;19932;-77
2022/09/12 04:34:24;;;;;;;;;;;;;;;23.12;57.92;100338.19;2047473;29;19934;-77
2022/09/12 04:35:48;;;;;;;;;;;;;;;23.22;57.87;100339.56;2037304;29;19954;-77
2022/09/12 04:37:10;;;;;;;;;;;;;;;23.34;57.87;100333.66;2041149;29;19923;-77
2022/09/12 04:38:31;;;;;;;;;;;;;;;23.45;57.94;100336.75;2051307;28;19930;-77
2022/09/12 04:39:56;;;;;;;;;;;;;;;23.58;57.85;100339.78;2052551;28;19954;-77
2022/09/12 04:41:18;;;;;;;;;;;;;;;23.70;57.88;100333.84;2047339;28;19922;-77
2022/09/12 04:42:41;;;;;;;;;;;;;;;23.81;57.57;100335.13;2058610;28;20292;-77
2022/09/12 04:44:04;;;;;;;;;;;;;;;23.91;57.51;100323.91;2058948;28;19922;-77
2022/09/12 04:45:26;;;;;;;;;;;;;;;24.03;57.63;100329.59;2055168;28;19930;-77
2022/09/12 04:46:47;;;;;;;;;;;;;;;24.15;57.52;100333.56;2044908;29;19950;-76
2022/09/12 04:48:09;;;;;;;;;;;;;;;24.27;57.72;100335.72;2043292;29;20339;-77
2022/09/12 04:49:31;;;;;;;;;;;;;;;24.38;56.76;100336.06;2053690;28;20390;-77
2022/09/12 04:50:54;;;;;;;;;;;;;;;24.44;56.80;100335.78;2054037;28;19981;-77
2022/09/12 04:52:16;;;;;;;;;;;;;;;24.44;55.82;100337.59;2053890;28;19941;-77
2022/09/12 04:53:37;;;;;;;;;;;;;;;24.44;56.21;100329.50;2049284;28;19930;-78
2022/09/12 04:55:00;;;;;;;;;;;;;;;24.53;56.55;100338.03;2044717;28;19923;-79
2022/09/12 04:56:21;;;;;;;;;;;;;;;24.65;56.82;100327.56;2051186;28;20358;-78
2022/09/12 04:57:43;;;;;;;;;;;;;;;24.79;57.18;100330.47;2056251;28;20302;-78
2022/09/12 04:59:07;;;;;;;;;;;;;;;24.91;56.67;100338.00;2056410;28;19929;-77
2022/09/12 05:00:29;;;;;;;;;;;;;;;25.03;56.88;100337.38;2061750;28;20008;-78
2022/09/12 05:01:50;;;;;;;;;;;;;;;25.14;56.29;100334.13;2062442;28;19936;-78
2022/09/12 05:03:12;;;;;;;;;;;;;;;25.24;56.11;100336.28;2049856;28;20551;-78
2022/09/12 05:04:34;;;;;;;;;;;;;;;25.35;56.29;100342.00;2041716;29;19922;-78
2022/09/12 05:05:57;;;;;;;;;;;;;;;25.51;57.13;100335.78;2042983;28;19958;-77
2022/09/12 05:07:19;;;;;;;;;;;;;;;25.66;56.77;100333.19;2050251;28;19922;-77
2022/09/12 05:08:40;;;;;;;;;;;;;;;25.82;56.66;100341.34;2045571;29;19923;-77
2022/09/12 05:10:03;;;;;;;;;;;;;;;25.95;56.59;100339.72;2045413;29;19985;-78
2022/09/12 05:11:25;;;;;;;;;;;;;;;26.09;56.87;100345.25;2053855;28;19922;-78
2022/09/12 05:12:47;;;;;;;;;;;;;;;26.20;55.98;100341.94;2061170;28;19921;-78
2022/09/12 05:14:08;;;;;;;;;;;;;;;26.26;55.62;100349.75;2058215;28;19957;-77
2022/09/12 05:15:30;;;;;;;;;;;;;;;26.34;56.33;100344.78;2064429;28;19989;-78
2022/09/12 05:16:53;;;;;;;;;;;;;;;26.44;55.30;100353.28;2054694;28;19922;-78
2022/09/12 05:18:15;;;;;;;;;;;;;;;26.52;55.70;100345.56;2053760;28;19922;-78
2022/09/12 05:19:38;;;;;;;;;;;;;;;26.67;55.54;100343.81;2044040;29;19934;-78
2022/09/12 05:21:01;;;;;;;;;;;;;;;26.79;55.57;100357.53;2035253;29;20005;-78
2022/09/12 05:22:24;;;;;;;;;;;;;;;26.93;56.33;100348.63;2052032;28;19953;-78
2022/09/12 05:23:46;;;;;;;;;;;;;;;27.08;56.12;100341.44;2042700;29;20338;-78
2022/09/12 05:25:09;;;;;;;;;;;;;;;27.24;55.84;100339.56;2042636;29;19929;-78
2022/09/12 05:26:31;;;;;;;;;;;;;;;27.40;55.66;100340.38;2061479;28;19921;-78
2022/09/12 05:27:53;;;;;;;;;;;;;;;27.55;55.44;100338.63;2050829;28;19930;-78
2022/09/12 05:29:16;;;;;;;;;;;;;;;27.67;55.22;100346.00;2052427;28;19922;-77
2022/09/12 05:30:38;;;;;;;;;;;;;;;27.80;54.22;100348.81;2040296;29;20373;-78
2022/09/12 05:32:00;;;;;;;;;;;;;;;27.87;54.11;100344.75;2047020;28;19922;-78
2022/09/12 05:33:21;;;;;;;;;;;;;;;27.95;54.34;100342.44;2053207;28;20283;-78
2022/09/12 05:34:43;;;;;;;;;;;;;;;28.03;53.88;100351.81;2051993;28;19949;-78
2022/09/12 05:36:06;;;;;;;;;;;;;;;28.12;53.72;100343.09;2053264;28;20017;-78
2022/09/12 05:37:29;;;;;;;;;;;;;;;28.23;53.94;100347.00;2045742;29;19989;-78
2022/09/12 05:38:50;;;;;;;;;;;;;;;28.36;53.74;100337.09;2051153;28;19922;-78
2022/09/12 05:40:16;;;;;;;;;;;;;;;28.46;53.73;100339.13;2045607;29;19994;-78
2022/09/12 05:41:38;;;;;;;;;;;;;;;28.58;54.12;100344.72;2053823;28;19926;-78
2022/09/12 05:43:00;;;;;;;;;;;;;;;28.77;53.81;100339.84;2053267;28;19922;-78
2022/09/12 05:44:21;;;;;;;;;;;;;;;28.99;52.93;100342.00;2067141;28;20026;-78
2022/09/12 05:45:43;;;;;;;;;;;;;;;29.20;51.98;100344.16;2063791;28;20044;-78
2022/09/12 05:47:06;;;;;;;;;;;;;;;29.38;51.60;100344.75;2061616;28;20477;-78
2022/09/12 05:48:27;;;;;;;;;;;;;;;29.53;50.74;100340.97;2053476;28;19922;-78
2022/09/12 05:49:50;;;;;;;;;;;;;;;29.70;50.05;100340.66;2054993;28;20346;-78
2022/09/12 05:51:18;;;;;;;;;;;;;;;29.86;49.94;100337.72;2051101;28;19926;-78
2022/09/12 05:52:40;;;;;;;;;;;;;;;29.97;49.75;100339.72;2068352;28;19921;-78
2022/09/12 05:54:03;;;;;;;;;;;;;;;30.15;49.42;100346.56;2054638;28;19922;-79
2022/09/12 05:55:25;;;;;;;;;;;;;;;30.32;48.95;100339.91;2059199;28;19928;-78
2022/09/12 05:56:47;;;;;;;;;;;;;;;30.44;49.19;100345.31;2061233;28;19925;-78
2022/09/12 05:58:08;;;;;;;;;;;;;;;30.58;49.06;100346.19;2054855;28;19922;-79
2022/09/12 05:59:30;;;;;;;;;;;;;;;30.68;48.27;100342.63;2059792;28;19928;-79
2022/09/12 06:00:51;;;;;;;;;;;;;;;30.77;48.65;100343.81;2049702;28;19985;-78
2022/09/12 06:02:13;;;;;;;;;;;;;;;30.89;48.63;100345.63;2061453;28;19929;-78
2022/09/12 06:03:34;;;;;;;;;;;;;;;31.01;48.48;100341.97;2056820;28;20409;-78
2022/09/12 06:04:56;;;;;;;;;;;;;;;31.12;48.97;100342.03;2057930;28;19925;-79
2022/09/12 06:06:22;;;;;;;;;;;;;;;31.24;48.58;100348.44;2056117;28;19921;-78
2022/09/12 06:07:45;;;;;;;;;;;;;;;31.36;47.90;100346.59;2040165;29;19922;-80
2022/09/12 06:09:08;;;;;;;;;;;;;;;31.46;47.31;100344.88;2037750;29;19931;-79
2022/09/12 06:10:30;;;;;;;;;;;;;;;31.48;47.07;100351.09;2037733;29;19922;-80
2022/09/12 06:11:52;;;;;;;;;;;;;;;31.55;46.65;100353.25;2042963;29;19923;-80
2022/09/12 06:13:13;;;;;;;;;;;;;;;31.65;46.78;100354.28;2053052;28;19977;-79
2022/09/12 06:14:35;;;;;;;;;;;;;;;31.80;46.89;100354.94;2047994;29;19922;-81
2022/09/12 06:16:01;;;;;;;;;;;;;;;31.94;46.73;100357.44;2045521;29;20409;-78
2022/09/12 06:17:23;;;;;;;;;;;;;;;32.10;47.13;100354.34;2049855;28;19926;-78
2022/09/12 06:18:47;;;;;;;;;;;;;;;32.21;47.01;100351.66;2055743;28;19922;-78
2022/09/12 06:20:10;;;;;;;;;;;;;;;32.32;46.89;100353.50;2053534;28;19963;-78
2022/09/12 06:21:34;;;;;;;;;;;;;;;32.39;46.63;100352.88;2054097;28;19957;-77
2022/09/12 06:22:56;;;;;;;;;;;;;;;32.45;46.29;100356.97;2044250;28;20299;-79
2022/09/12 06:24:18;;;;;;;;;;;;;;;32.52;46.40;100360.06;2050931;28;19926;-80
2022/09/12 06:25:45;;;;;;;;;;;;;;;32.57;45.83;100355.09;2036659;29;20465;-81
2022/09/12 06:27:07;;;;;;;;;;;;;;;32.63;45.29;100352.72;2051563;28;19957;-81
2022/09/12 06:28:29;;;;;;;;;;;;;;;32.69;45.52;100359.59;2052906;28;20378;-81
2022/09/12 06:29:51;;;;;;;;;;;;;;;32.75;45.02;100357.22;2054436;28;19922;-81
2022/09/12 06:31:15;;;;;;;;;;;;;;;32.91;43.91;100356.81;2053663;28;19958;-80
2022/09/12 06:32:37;;;;;;;;;;;;;;;33.00;43.19;100358.78;2048326;28;19930;-81
2022/09/12 06:34:00;;;;;;;;;;;;;;;33.10;42.76;100354.25;2045600;29;19922;-81
2022/09/12 06:35:22;;;;;;;;;;;;;;;33.22;43.06;100364.19;2050994;28;19933;-81
2022/09/12 06:36:46;;;;;;;;;;;;;;;33.28;42.09;100362.78;2055219;28;20412;-80
2022/09/12 06:38:09;;;;;;;;;;;;;;;33.26;41.91;100361.19;2054039;28;19952;-81
2022/09/12 06:39:31;;;;;;;;;;;;;;;33.25;41.51;100367.66;2055155;28;19960;-81
2022/09/12 06:40:53;;;;;;;;;;;;;;;33.27;41.06;100366.53;2053759;28;19949;-79
2022/09/12 06:42:15;;;;;;;;;;;;;;;33.30;41.17;100370.88;2053772;28;19953;-81
2022/09/12 06:43:45;;;;;;;;;;;;;;;33.29;40.98;100364.53;2049096;29;19950;-80
2022/09/12 06:45:07;;;;;;;;;;;;;;;33.29;41.38;100371.88;2054869;28;19922;-81
2022/09/12 06:46:30;;;;;;;;;;;;;;;33.26;41.18;100373.00;2057002;28;19922;-80
2022/09/12 06:47:53;;;;;;;;;;;;;;;33.25;41.32;100378.63;2059871;28;19926;-80
2022/09/12 06:49:14;;;;;;;;;;;;;;;33.31;41.41;100378.09;2041441;29;19946;-80
2022/09/12 06:50:36;;;;;;;;;;;;;;;33.41;41.57;100371.69;2052038;28;20330;-81
2022/09/12 06:51:59;;;;;;;;;;;;;;;33.46;41.06;100374.03;2048240;29;19926;-80
2022/09/12 06:53:20;;;;;;;;;;;;;;;33.49;41.05;100376.50;2043412;29;19926;-80
2022/09/12 06:54:42;;;;;;;;;;;;;;;33.55;41.52;100375.97;2050942;28;20565;-79
2022/09/12 06:56:04;;;;;;;;;;;;;;;33.70;41.45;100365.56;2060068;28;20178;-79
2022/09/12 06:57:29;;;;;;;;;;;;;;;33.81;40.86;100380.09;2046969;29;19989;-79
2022/09/12 06:58:52;;;;;;;;;;;;;;;33.87;40.86;100376.81;2051267;28;20016;-80
2022/09/12 07:00:13;;;;;;;;;;;;;;;33.96;41.03;100373.28;2045686;29;19938;-78
2022/09/12 07:01:35;;;;;;;;;;;;;;;34.05;40.93;100373.47;2053867;28;19922;-83
2022/09/12 07:02:56;;;;;;;;;;;;;;;34.12;40.74;100380.16;2054755;28;19940;-81
2022/09/12 07:04:18;;;;;;;;;;;;;;;34.13;40.42;100381.88;2053021;28;19929;-80
2022/09/12 07:05:39;;;;;;;;;;;;;;;34.11;40.52;100381.16;2039917;28;19922;-80
2022/09/12 07:07:04;;;;;;;;;;;;;;;34.10;40.58;100377.53;2051611;28;20349;-79
2022/09/12 07:08:25;;;;;;;;;;;;;;;34.22;40.41;100383.81;2046587;29;19922;-80
2022/09/12 07:09:48;;;;;;;;;;;;;;;34.22;39.22;100381.94;2051313;28;19922;-79